Time;durP1;ratioP1;P1;durP2;ratioP2;P2;SDS_P1;SDS_P2;PMS_P1;PMS_P2;Temp;Humidity;BMP_temperature;BMP_pressure;BME280_temperature;BME280_humidity;BME280_pressure;Samples;Min_cycle;Max_cycle;Signal;HPM_P1;HPM_P2
2022/03/28 00:00:12;;;;;;;6.70;5.07;;;;;;;7.31;78.74;101450.25;6212386;23;20012;-71
2022/03/28 00:02:50;;;;;;;;;;;;;;;;;;;;;
2022/03/28 00:05:25;;;;;;;6.07;4.35;;;;;;;7.16;78.09;101434.25;6211306;23;20072;-72
2022/03/28 00:07:50;;;;;;;6.70;3.95;;;;;;;7.12;79.02;101425.66;6211882;23;20038;-71
2022/03/28 00:10:19;;;;;;;7.22;4.75;;;;;;;7.06;78.10;101410.22;6185884;23;20013;-72
2022/03/28 00:12:47;;;;;;;5.78;3.65;;;;;;;7.10;78.99;101416.09;6211424;23;20011;-70
2022/03/28 00:15:13;;;;;;;8.20;5.28;;;;;;;7.06;78.68;101421.09;6195652;23;20019;-72
2022/03/28 00:17:39;;;;;;;8.60;5.10;;;;;;;7.06;78.71;101429.28;6180092;23;20016;-71
2022/03/28 00:20:12;;;;;;;6.40;4.45;;;;;;;6.97;79.53;101417.81;6207221;23;20444;-71
2022/03/28 00:22:39;;;;;;;5.97;3.75;;;;;;;6.96;79.38;101423.47;6261199;23;19992;-71
2022/03/28 00:25:06;;;;;;;5.25;3.65;;;;;;;6.89;79.13;101414.50;6232360;23;20012;-72
2022/03/28 00:27:32;;;;;;;3.97;3.15;;;;;;;6.87;79.13;101419.34;6239754;22;20085;-73
2022/03/28 00:29:57;;;;;;;4.53;3.60;;;;;;;6.84;79.27;101419.78;6227393;22;20009;-72
2022/03/28 00:32:25;;;;;;;7.55;4.22;;;;;;;6.77;79.36;101412.47;6248335;23;20012;-72
2022/03/28 00:34:51;;;;;;;5.90;3.67;;;;;;;6.85;78.50;101435.03;6242826;23;20004;-71
2022/03/28 00:37:19;;;;;;;5.63;3.20;;;;;;;6.57;78.74;101395.41;6247126;23;20056;-73
2022/03/28 00:39:45;;;;;;;4.13;3.28;;;;;;;6.61;78.30;101402.94;6248852;23;20047;-71
2022/03/28 00:42:11;;;;;;;4.05;2.70;;;;;;;6.69;78.86;101420.03;6220624;23;20008;-73
2022/03/28 00:44:37;;;;;;;4.72;2.65;;;;;;;6.60;78.90;101416.72;6245654;23;20075;-72
2022/03/28 00:47:10;;;;;;;3.70;2.58;;;;;;;6.53;79.28;101402.34;6216535;23;20034;-73
2022/03/28 00:49:39;;;;;;;5.65;3.17;;;;;;;6.53;79.05;101402.34;6219435;23;20054;-74
2022/03/28 00:52:09;;;;;;;4.82;3.20;;;;;;;6.49;78.61;101403.84;6217576;23;20035;-73
2022/03/28 00:54:34;;;;;;;3.85;2.85;;;;;;;6.53;78.43;101410.50;6245072;23;20015;-72
2022/03/28 00:57:01;;;;;;;8.05;4.35;;;;;;;6.54;78.31;101413.00;6194470;23;20012;-72
2022/03/28 00:59:35;;;;;;;8.57;5.10;;;;;;;6.44;78.61;101413.47;6216613;23;20004;-72
2022/03/28 01:02:19;;;;;;;;;;;;;;;;;;;;;
2022/03/28 01:04:45;;;;;;;9.38;5.95;;;;;;;6.23;78.35;101398.25;6220407;23;20082;-73
2022/03/28 01:07:16;;;;;;;9.45;5.28;;;;;;;6.29;78.84;101421.00;6218149;23;20008;-73
2022/03/28 01:09:42;;;;;;;11.23;5.25;;;;;;;6.07;78.32;101385.97;6222351;23;20012;-73
2022/03/28 01:12:10;;;;;;;8.70;5.28;;;;;;;6.18;78.26;101408.13;6222896;23;20019;-74
2022/03/28 01:14:52;;;;;;;;;;;;;;;;;;;;;
2022/03/28 01:20:14;;;;;;;12.60;6.28;;;;;;;5.97;77.91;101395.56;6249030;23;20096;-74
2022/03/28 01:22:40;;;;;;;6.90;4.22;;;;;;;5.88;78.17;101373.25;6195535;23;20008;-72
2022/03/28 01:25:07;;;;;;;10.10;5.38;;;;;;;5.99;77.35;101382.66;6191924;23;20061;-74
2022/03/28 01:27:36;;;;;;;8.10;4.72;;;;;;;5.94;77.11;101375.97;6217714;23;20318;-72
2022/03/28 01:30:12;;;;;;;7.60;4.75;;;;;;;5.95;77.00;101379.50;6217541;23;20134;-72
2022/03/28 01:32:57;;;;;;;8.02;4.80;;;;;;;5.82;76.56;101352.38;6196775;23;20012;-71
2022/03/28 01:35:31;;;;;;;8.07;4.78;;;;;;;5.86;76.88;101368.03;6218282;23;20019;-71
2022/03/28 01:38:19;;;;;;;;;;;;;;;;;;;;;
2022/03/28 01:40:50;;;;;;;8.05;5.03;;;;;;;5.88;76.51;101386.81;6243835;23;20086;-71
2022/03/28 01:43:33;;;;;;;7.03;4.20;;;;;;;5.85;76.00;101381.81;6247055;23;20046;-72
2022/03/28 01:45:59;;;;;;;7.25;4.35;;;;;;;5.87;76.58;101393.28;6218091;23;20031;-71
2022/03/28 01:48:32;;;;;;;5.97;3.42;;;;;;;5.69;75.79;101362.19;6220740;23;20000;-71
2022/03/28 01:50:57;;;;;;;7.18;4.20;;;;;;;5.58;76.53;101343.84;6245933;23;20194;-72
2022/03/28 01:53:23;;;;;;;6.40;3.65;;;;;;;5.65;75.65;101355.53;6216976;23;20451;-71
2022/03/28 01:55:48;;;;;;;8.90;4.20;;;;;;;5.73;75.72;101371.59;6242924;23;20007;-71
2022/03/28 01:58:16;;;;;;;6.10;4.13;;;;;;;5.59;75.79;101354.50;6241179;23;20012;-71
2022/03/28 02:00:42;;;;;;;5.97;3.65;;;;;;;5.67;75.69;101380.56;6219500;23;20004;-71
2022/03/28 02:03:07;;;;;;;8.07;3.67;;;;;;;5.63;75.32;101364.94;6221057;23;20008;-74
2022/03/28 02:05:33;;;;;;;6.15;3.42;;;;;;;5.61;75.39;101373.28;6242350;23;20458;-70
2022/03/28 02:08:15;;;;;;;5.95;3.83;;;;;;;5.50;74.61;101352.19;6215294;23;20304;-72
2022/03/28 02:10:41;;;;;;;4.70;3.40;;;;;;;5.45;74.57;101338.41;6216359;23;20038;-72
2022/03/28 02:13:08;;;;;;;6.72;3.20;;;;;;;5.57;74.42;101359.28;6242358;23;20380;-73
2022/03/28 02:15:36;;;;;;;10.75;4.40;;;;;;;5.54;73.94;101348.84;6219112;23;20074;-71
2022/03/28 02:18:02;;;;;;;5.65;3.42;;;;;;;5.55;74.14;101338.84;6219090;23;20411;-71
2022/03/28 02:20:32;;;;;;;4.65;3.10;;;;;;;5.42;74.11;101326.13;6248647;23;20008;-73
2022/03/28 02:23:18;;;;;;;5.00;2.90;;;;;;;5.48;74.26;101338.84;6223777;23;20069;-72
2022/03/28 02:25:43;;;;;;;7.72;3.05;;;;;;;5.42;73.77;101331.56;6224291;23;20092;-72
2022/03/28 02:28:11;;;;;;;4.90;2.60;;;;;;;5.25;74.07;101302.13;6251171;23;20007;-70
2022/03/28 02:30:39;;;;;;;4.03;2.60;;;;;;;5.35;73.42;101322.59;6221290;23;20055;-70
2022/03/28 02:33:09;;;;;;;4.28;2.45;;;;;;;5.40;73.30;101336.34;6246583;23;20008;-71
2022/03/28 02:35:38;;;;;;;5.18;2.92;;;;;;;5.27;73.19;101318.22;6224634;23;20008;-71
2022/03/28 02:38:08;;;;;;;5.65;3.53;;;;;;;5.22;73.00;101301.72;6220164;23;19996;-71
2022/03/28 02:40:39;;;;;;;5.93;2.92;;;;;;;5.23;73.14;101308.81;6248324;23;20015;-70
2022/03/28 02:43:05;;;;;;;4.55;2.85;;;;;;;5.17;72.97;101298.78;6222635;23;20093;-71
2022/03/28 02:45:46;;;;;;;6.72;3.17;;;;;;;5.17;72.86;101305.06;6248708;23;20004;-70
2022/03/28 02:48:17;;;;;;;3.33;2.28;;;;;;;5.28;72.52;101322.56;6248949;23;20419;-70
2022/03/28 02:50:44;;;;;;;3.58;2.15;;;;;;;5.23;72.73;101314.25;6230763;23;20000;-69
2022/03/28 02:53:11;;;;;;;4.38;2.00;;;;;;;5.20;72.53;101315.50;6239007;23;20000;-70
2022/03/28 02:55:40;;;;;;;2.97;2.05;;;;;;;5.03;72.98;101293.38;6242917;23;20008;-73
2022/03/28 02:58:06;;;;;;;6.40;2.92;;;;;;;5.02;72.72;101297.13;6243237;22;19991;-73
2022/03/28 03:00:31;;;;;;;7.93;2.85;;;;;;;4.99;72.58;101296.69;6242959;22;20079;-71
2022/03/28 03:02:57;;;;;;;6.70;2.55;;;;;;;4.94;72.60;101289.19;6243736;22;20003;-73
2022/03/28 03:05:30;;;;;;;2.80;2.00;;;;;;;4.96;72.99;101297.13;6230022;22;20141;-73
2022/03/28 03:08:12;;;;;;;5.82;3.55;;;;;;;4.79;73.26;101269.56;6252934;23;20148;-73
2022/03/28 03:10:40;;;;;;;5.47;3.00;;;;;;;4.94;73.03;101305.47;6201049;23;20094;-72
2022/03/28 03:13:07;;;;;;;4.07;2.40;;;;;;;4.80;72.57;101279.38;6226603;23;20019;-73
2022/03/28 03:15:43;;;;;;;6.25;3.35;;;;;;;4.85;72.96;101296.69;6227330;23;20012;-74
2022/03/28 03:18:18;;;;;;;6.70;3.08;;;;;;;4.61;72.77;101262.88;6256211;23;20004;-75
2022/03/28 03:20:56;;;;;;;;;;;;;;;;;;;;;
2022/03/28 03:23:24;;;;;;;5.65;3.17;;;;;;;4.82;72.91;101290.84;6228442;23;20035;-72
2022/03/28 03:25:49;;;;;;;7.07;2.95;;;;;;;4.66;72.93;101271.25;6225682;23;20008;-72
2022/03/28 03:28:27;;;;;;;;;;;;;;;;;;;;;
2022/03/28 03:30:53;;;;;;;3.92;2.50;;;;;;;4.72;73.02;101275.81;6203355;23;20086;-70
2022/03/28 03:33:19;;;;;;;5.85;2.80;;;;;;;4.75;73.07;101280.00;6225819;23;20015;-72
2022/03/28 03:35:44;;;;;;;4.28;2.15;;;;;;;4.62;72.86;101267.25;6247490;23;20012;-72
2022/03/28 03:38:10;;;;;;;3.90;2.65;;;;;;;4.60;73.19;101260.38;6219529;23;20111;-72
2022/03/28 03:40:35;;;;;;;4.32;2.78;;;;;;;4.58;72.76;101251.63;6195083;23;20027;-72
2022/03/28 03:43:10;;;;;;;6.07;3.90;;;;;;;4.58;73.20;101257.88;6199731;23;20012;-71
2022/03/28 03:45:36;;;;;;;6.85;3.70;;;;;;;4.61;73.05;101254.75;6224716;23;20007;-72
2022/03/28 03:48:05;;;;;;;10.40;4.80;;;;;;;4.60;73.50;101255.81;6225630;23;20008;-73
2022/03/28 03:50:30;;;;;;;8.05;4.10;;;;;;;4.66;72.92;101263.09;6221501;23;20004;-72
2022/03/28 03:53:05;;;;;;;9.88;4.45;;;;;;;4.64;73.01;101262.47;6216072;23;20098;-71
2022/03/28 03:55:31;;;;;;;12.57;4.65;;;;;;;4.63;72.81;101263.53;6216720;23;20018;-71
2022/03/28 03:57:59;;;;;;;7.45;4.63;;;;;;;4.59;73.23;101264.16;6246313;23;20478;-71
2022/03/28 04:00:32;;;;;;;8.63;4.97;;;;;;;4.45;73.59;101236.19;6221848;23;20079;-72
2022/03/28 04:03:00;;;;;;;6.45;3.85;;;;;;;4.37;73.36;101229.91;6219867;23;19996;-72
2022/03/28 04:05:27;;;;;;;9.63;4.55;;;;;;;4.51;73.78;101249.75;6246874;23;20004;-71
2022/03/28 04:07:53;;;;;;;6.80;4.18;;;;;;;4.39;73.56;101231.59;6247504;23;20004;-72
2022/03/28 04:10:22;;;;;;;7.90;4.65;;;;;;;4.46;73.87;101240.56;6246332;23;20015;-71
2022/03/28 04:12:48;;;;;;;10.70;4.60;;;;;;;4.36;73.90;101217.41;6219429;23;20012;-71
2022/03/28 04:15:13;;;;;;;7.75;4.28;;;;;;;4.54;74.53;101240.34;6217585;22;20423;-72
2022/03/28 04:17:45;;;;;;;5.22;3.30;;;;;;;4.45;73.77;101230.78;6220018;23;20075;-71
2022/03/28 04:20:15;;;;;;;7.78;3.90;;;;;;;4.39;73.97;101209.94;6217793;23;20015;-72
2022/03/28 04:22:43;;;;;;;9.75;4.60;;;;;;;4.49;74.19;101215.78;6199818;23;20081;-72
2022/03/28 04:25:11;;;;;;;6.85;3.90;;;;;;;4.54;74.24;101224.97;6248939;23;20010;-75
2022/03/28 04:27:47;;;;;;;9.60;5.22;;;;;;;4.67;74.14;101248.53;6224385;23;20007;-74
2022/03/28 04:30:35;;;;;;;11.88;5.68;;;;;;;4.70;74.30;101245.41;6225495;23;20012;-73
2022/03/28 04:33:11;;;;;;;10.55;5.13;;;;;;;4.74;74.13;101240.41;6252039;23;20020;-75
2022/03/28 04:35:41;;;;;;;9.93;5.20;;;;;;;4.65;73.77;101225.38;6222610;23;20088;-74
2022/03/28 04:38:16;;;;;;;13.38;5.70;;;;;;;4.70;74.55;101229.16;6225682;23;20114;-70
2022/03/28 04:40:42;;;;;;;11.55;5.43;;;;;;;4.74;74.33;101239.56;6228621;23;20011;-74
2022/03/28 04:43:10;;;;;;;9.23;4.82;;;;;;;4.51;74.25;101214.53;6225061;23;20500;-75
2022/03/28 04:45:44;;;;;;;8.13;4.15;;;;;;;4.53;74.42;101215.16;6254042;23;20078;-74
2022/03/28 04:48:20;;;;;;;9.90;5.45;;;;;;;4.40;74.71;101193.47;6258943;23;20031;-74
2022/03/28 04:51:03;;;;;;;8.68;4.95;;;;;;;4.65;74.37;101230.81;6227193;23;20039;-74
2022/03/28 04:53:31;;;;;;;9.93;4.90;;;;;;;4.56;74.42;101211.22;6220130;23;20004;-73
2022/03/28 04:56:16;;;;;;;10.30;5.45;;;;;;;4.58;74.98;101213.72;6217331;23;20065;-70
2022/03/28 04:58:42;;;;;;;9.63;5.60;;;;;;;4.56;74.75;101200.38;6217519;23;20074;-74
2022/03/28 05:01:09;;;;;;;10.98;5.30;;;;;;;4.54;74.24;101191.59;6194458;23;20000;-75
2022/03/28 05:03:46;;;;;;;11.27;5.85;;;;;;;4.71;74.75;101219.97;6204416;23;20370;-73
2022/03/28 05:06:21;;;;;;;13.48;6.47;;;;;;;4.45;74.62;101172.00;6260915;23;20024;-72
2022/03/28 05:09:01;;;;;;;11.60;5.95;;;;;;;4.49;75.11;101189.53;6236444;23;20015;-74
2022/03/28 05:11:34;;;;;;;7.55;4.47;;;;;;;4.71;74.92;101213.72;6216024;23;19996;-74
2022/03/28 05:14:29;;;;;;;10.52;5.57;;;;;;;4.59;74.85;101194.53;6216842;23;20035;-72
2022/03/28 05:17:12;;;;;;;10.80;5.68;;;;;;;4.53;75.08;101174.53;6238824;22;20007;-74
2022/03/28 05:19:38;;;;;;;14.15;5.72;;;;;;;4.77;74.65;101206.63;6256766;23;20008;-74
2022/03/28 05:22:06;;;;;;;10.30;6.00;;;;;;;4.72;74.72;101189.13;6246000;23;20011;-75
2022/03/28 05:24:33;;;;;;;9.43;5.45;;;;;;;4.76;74.91;101194.97;6244963;23;20063;-75
2022/03/28 05:26:59;;;;;;;11.88;6.13;;;;;;;4.83;74.73;101194.94;6250356;23;20047;-75
2022/03/28 05:29:27;;;;;;;12.25;5.95;;;;;;;4.67;74.58;101175.38;6247207;23;20168;-75
2022/03/28 05:31:53;;;;;;;11.27;6.13;;;;;;;4.67;74.98;101186.22;6246058;23;20018;-75
2022/03/28 05:34:21;;;;;;;14.93;7.28;;;;;;;4.74;75.39;101198.94;6250344;23;20052;-75
2022/03/28 05:36:47;;;;;;;15.38;6.88;;;;;;;4.67;75.39;101191.63;6250669;23;20011;-76
2022/03/28 05:39:13;;;;;;;8.85;5.10;;;;;;;4.62;75.39;101191.41;6247712;23;20004;-76
2022/03/28 05:41:46;;;;;;;7.55;4.75;;;;;;;4.60;75.26;101196.22;6252649;23;20419;-77
2022/03/28 05:44:17;;;;;;;10.18;5.53;;;;;;;4.55;75.13;101185.16;6199212;23;20008;-77
2022/03/28 05:46:42;;;;;;;13.90;5.88;;;;;;;4.60;75.32;101188.09;6227058;23;20470;-77
2022/03/28 05:49:08;;;;;;;11.75;6.32;;;;;;;4.60;75.44;101187.22;6224965;23;20008;-76
2022/03/28 05:51:34;;;;;;;12.18;6.47;;;;;;;4.58;75.79;101182.03;6245931;23;20008;-75
2022/03/28 05:54:08;;;;;;;13.77;6.93;;;;;;;4.58;75.23;101182.03;6195408;23;20080;-74
2022/03/28 05:56:34;;;;;;;15.32;7.57;;;;;;;4.51;75.78;101179.34;6247363;23;20097;-73
2022/03/28 05:59:02;;;;;;;12.40;6.47;;;;;;;4.60;75.50;101190.78;6249912;23;20012;-75
2022/03/28 06:01:36;;;;;;;12.65;7.00;;;;;;;4.59;76.08;101172.88;6197483;23;20339;-74
2022/03/28 06:04:03;;;;;;;12.80;6.53;;;;;;;4.71;75.36;101175.78;6249067;23;20138;-73
2022/03/28 06:06:31;;;;;;;11.40;6.32;;;;;;;4.66;75.82;101165.56;6195492;23;20015;-73
2022/03/28 06:09:00;;;;;;;15.85;7.43;;;;;;;4.69;75.91;101162.44;6191182;23;20045;-76
2022/03/28 06:11:26;;;;;;;14.88;6.60;;;;;;;4.69;75.52;101156.19;6249295;23;20031;-74
2022/03/28 06:14:01;;;;;;;13.00;6.88;;;;;;;4.89;74.98;101177.84;6191720;23;20012;-74
2022/03/28 06:16:27;;;;;;;12.75;7.53;;;;;;;4.86;75.34;101168.28;6246658;22;20020;-75
2022/03/28 06:18:53;;;;;;;12.00;6.22;;;;;;;5.05;75.38;101185.56;6218618;23;20008;-74
2022/03/28 06:21:21;;;;;;;11.27;6.72;;;;;;;4.97;74.76;101155.97;6218249;23;20053;-75
2022/03/28 06:23:52;;;;;;;15.73;6.80;;;;;;;5.21;74.89;101188.84;6246617;23;20071;-74
2022/03/28 06:26:20;;;;;;;13.20;5.60;;;;;;;5.12;74.77;101163.84;6191014;23;20000;-74
2022/03/28 06:28:46;;;;;;;13.00;6.70;;;;;;;5.29;74.22;101180.50;6244929;23;20004;-73
2022/03/28 06:31:16;;;;;;;15.85;7.13;;;;;;;5.15;74.70;101157.19;6213133;23;20090;-74
2022/03/28 06:33:42;;;;;;;12.50;5.88;;;;;;;5.19;74.62;101159.25;6244421;23;20015;-74
2022/03/28 06:36:08;;;;;;;13.93;7.13;;;;;;;5.19;74.51;101163.84;6216554;23;20008;-74
2022/03/28 06:38:37;;;;;;;11.73;6.38;;;;;;;5.15;74.70;101166.13;6241216;23;20039;-75
2022/03/28 06:41:05;;;;;;;16.60;7.60;;;;;;;5.22;75.00;101176.97;6217270;23;20012;-73
2022/03/28 06:43:34;;;;;;;18.73;7.32;;;;;;;5.09;74.79;101155.31;6218702;23;20008;-73
2022/03/28 06:45:59;;;;;;;16.13;7.88;;;;;;;5.14;74.53;101147.38;6193985;23;20008;-75
2022/03/28 06:48:25;;;;;;;13.98;6.32;;;;;;;5.39;74.45;101169.22;6216345;23;20501;-75
2022/03/28 06:50:50;;;;;;;10.43;5.45;;;;;;;5.34;74.29;101153.56;6213548;23;20012;-75
2022/03/28 06:53:16;;;;;;;13.40;6.65;;;;;;;5.44;74.41;101146.88;6221110;23;20027;-73
2022/03/28 06:55:49;;;;;;;19.85;8.15;;;;;;;5.63;74.01;101164.94;6251474;23;20095;-72
2022/03/28 06:58:17;;;;;;;14.07;6.70;;;;;;;5.65;74.03;101152.03;6207022;23;20016;-71
2022/03/28 07:00:53;;;;;;;17.60;5.80;;;;;;;5.65;73.67;101127.59;6257654;23;20012;-71
2022/03/28 07:03:19;;;;;;;20.17;7.90;;;;;;;5.77;73.86;101142.13;6256935;23;20003;-72
2022/03/28 07:05:45;;;;;;;12.57;7.15;;;;;;;5.98;73.18;101152.94;6220337;23;20419;-72
2022/03/28 07:08:12;;;;;;;13.20;7.35;;;;;;;6.07;73.00;101152.44;6223416;23;20008;-73
2022/03/28 07:10:37;;;;;;;9.38;5.93;;;;;;;6.09;73.38;101139.47;6219540;23;20012;-75
2022/03/28 07:13:04;;;;;;;14.90;7.07;;;;;;;6.39;72.38;101155.16;6190100;23;20012;-73
2022/03/28 07:23:14;;;;;;;13.90;6.45;;;;;;;7.11;70.08;101140.28;6041674;23;20018;-76
2022/03/28 07:26:10;;;;;;;13.15;7.10;;;;;;;7.28;69.85;101146.81;6019515;23;20150;-73
2022/03/28 07:32:25;;;;;;;;;;;;;;;;;;;;;
2022/03/28 07:35:41;;;;;;;13.73;7.82;;;;;;;7.67;68.47;101119.34;5980775;24;20442;-73
2022/03/28 07:38:20;;;;;;;17.55;7.20;;;;;;;7.99;68.18;101125.38;6024687;23;20066;-75
2022/03/28 07:45:21;;;;;;;;;;;;;;;;;;;;;
2022/03/28 07:51:37;;;;;;;;;;;;;;;;;;;;;
2022/03/28 07:54:03;;;;;;;15.93;5.88;;;;;;;9.59;64.53;101127.25;6016801;23;20802;-72
2022/03/28 07:56:28;;;;;;;12.48;6.90;;;;;;;9.85;63.46;101119.53;6219752;23;20011;-72
2022/03/28 07:59:14;;;;;;;7.65;4.63;;;;;;;10.11;63.54;101111.81;6220834;23;20004;-73
2022/03/28 08:01:42;;;;;;;14.57;6.20;;;;;;;10.47;62.77;101112.47;6219849;23;20000;-74
2022/03/28 08:04:08;;;;;;;8.40;5.00;;;;;;;10.94;61.70;101120.28;6225367;23;20012;-74
2022/03/28 08:07:07;;;;;;;8.30;5.20;;;;;;;11.31;60.97;101129.81;6252168;23;20028;-75
2022/03/28 08:09:42;;;;;;;7.97;4.60;;;;;;;11.58;59.65;101096.19;6232004;23;20067;-74
2022/03/28 08:12:12;;;;;;;8.32;5.22;;;;;;;12.19;59.30;101116.06;6177903;23;20012;-73
2022/03/28 08:14:42;;;;;;;9.68;5.30;;;;;;;12.68;58.05;101125.22;6199935;23;20031;-74
2022/03/28 08:17:18;;;;;;;9.68;4.28;;;;;;;12.98;56.05;101088.94;6225364;22;20020;-74
2022/03/28 08:19:46;;;;;;;7.80;4.80;;;;;;;13.52;55.09;101103.47;6227735;23;20008;-74
2022/03/28 08:22:19;;;;;;;12.73;6.35;;;;;;;13.74;54.21;101123.34;6223496;23;20099;-73
2022/03/28 08:24:44;;;;;;;12.82;6.85;;;;;;;13.92;53.45;101110.19;6223553;23;20007;-75
2022/03/28 08:27:41;;;;;;;;;;;;;;;;;;;;;
2022/03/28 08:30:19;;;;;;;13.95;7.40;;;;;;;15.17;51.71;101116.22;6243745;23;20323;-73
2022/03/28 08:33:05;;;;;;;10.57;5.70;;;;;;;15.83;50.28;101119.00;6181940;23;20022;-72
2022/03/28 08:35:31;;;;;;;12.98;6.88;;;;;;;16.35;48.19;101114.78;6224103;23;20075;-75
2022/03/28 08:38:04;;;;;;;10.73;5.72;;;;;;;16.85;47.36;101114.63;6224868;23;20072;-73
2022/03/28 08:40:29;;;;;;;13.43;7.75;;;;;;;17.18;45.97;101078.91;6252514;23;20004;-73
2022/03/28 08:43:06;;;;;;;11.77;6.50;;;;;;;17.88;45.26;101115.34;6250302;23;20000;-75
2022/03/28 08:45:58;;;;;;;;;;;;;;;;;;;;;
2022/03/28 08:48:55;;;;;;;12.07;5.63;;;;;;;19.30;42.98;101082.75;6251837;23;20047;-72
2022/03/28 08:54:48;;;;;;;;;;;;;;;21.06;39.71;101124.66;6100516;23;20011;-75
2022/03/28 08:57:32;;;;;;;;;;;;;;;;;;;;;
2022/03/28 09:00:11;;;;;;;13.30;7.30;;;;;;;21.74;37.61;101093.78;6079244;23;20041;-72
2022/03/28 09:03:18;;;;;;;9.27;5.38;;;;;;;22.49;37.06;101112.31;6073954;23;20481;-73
2022/03/28 09:05:59;;;;;;;16.80;7.70;;;;;;;23.09;35.86;101118.06;6099951;23;20080;-74
2022/03/28 09:08:25;;;;;;;9.60;5.70;;;;;;;23.46;35.26;101082.91;6115606;23;20069;-73
2022/03/28 09:11:24;;;;;;;12.77;6.50;;;;;;;24.15;35.21;101108.72;6199164;23;20063;-72
2022/03/28 09:14:17;;;;;;;8.23;5.25;;;;;;;24.89;34.38;101103.38;6212748;23;20004;-74
2022/03/28 09:17:16;;;;;;;;;;;;;;;;;;;;;
2022/03/28 09:20:05;;;;;;;15.23;7.72;;;;;;;26.09;31.14;101107.97;6250609;23;20028;-72
2022/03/28 09:22:38;;;;;;;15.98;7.35;;;;;;;26.15;31.04;101084.13;6238919;23;20011;-73
2022/03/28 09:25:10;;;;;;;13.05;7.53;;;;;;;26.45;30.54;101083.78;6223111;23;20039;-70
2022/03/28 09:27:50;;;;;;;;;;;;;;;;;;;;;
2022/03/28 09:30:20;;;;;;;13.45;6.55;;;;;;;27.64;29.53;101084.75;6218583;23;20060;-71
2022/03/28 09:33:01;;;;;;;11.10;6.38;;;;;;;27.97;29.24;101094.72;6244526;23;20003;-71
2022/03/28 09:35:27;;;;;;;9.95;5.65;;;;;;;28.68;28.77;101086.09;6240103;23;20047;-73
2022/03/28 09:38:04;;;;;;;10.98;4.93;;;;;;;29.43;28.53;101092.16;6243731;23;20490;-73
2022/03/28 09:40:45;;;;;;;12.73;7.82;;;;;;;29.41;27.39;101088.91;6194072;23;20011;-74
2022/03/28 09:43:18;;;;;;;10.30;6.50;;;;;;;29.52;28.00;101083.44;6242063;23;20000;-73
2022/03/28 09:45:50;;;;;;;10.60;6.30;;;;;;;30.49;26.76;101071.78;6219575;23;20008;-75
2022/03/28 09:48:19;;;;;;;14.45;7.28;;;;;;;30.27;25.85;101071.50;6219300;23;20006;-78
2022/03/28 09:51:03;;;;;;;11.48;6.18;;;;;;;29.31;26.79;101061.41;6197183;23;20008;-76
2022/03/28 09:53:32;;;;;;;;;;;;;;;29.38;27.34;101077.59;6222965;23;20007;-74
2022/03/28 09:56:16;;;;;;;12.75;7.13;;;;;;;29.31;26.80;101067.03;6223420;23;19922;-75
2022/03/28 09:58:56;;;;;;;;;;;;;;;;;;;;;
2022/03/28 10:01:46;;;;;;;12.52;5.63;;;;;;;29.94;26.61;101070.34;6249760;23;20084;-71
2022/03/28 10:04:31;;;;;;;11.43;6.30;;;;;;;29.20;27.10;101060.41;6220583;23;20411;-69
2022/03/28 10:06:56;;;;;;;9.40;5.93;;;;;;;29.30;27.16;101056.97;6243977;23;20367;-70
2022/03/28 10:09:27;;;;;;;11.20;6.72;;;;;;;29.45;26.62;101045.91;6218918;23;20019;-71
2022/03/28 10:11:55;;;;;;;15.00;7.75;;;;;;;29.40;26.06;101052.69;6246183;23;20280;-71
2022/03/28 10:14:31;;;;;;;;;;;;;;;;;;;;;
2022/03/28 10:17:08;;;;;;;8.07;5.35;;;;;;;29.73;26.64;101054.75;6244011;23;20091;-70
2022/03/28 10:19:37;;;;;;;13.35;7.35;;;;;;;30.19;26.05;101055.72;6218237;23;20008;-70
2022/03/28 10:22:10;;;;;;;12.45;7.05;;;;;;;30.44;25.25;101056.00;6246539;23;20390;-69
2022/03/28 10:24:36;;;;;;;16.10;8.68;;;;;;;30.36;25.45;101052.28;6219922;23;20769;-73
2022/03/28 10:27:09;;;;;;;17.83;8.60;;;;;;;29.69;25.60;101048.25;6220802;23;20012;-71
2022/03/28 10:29:45;;;;;;;13.45;6.85;;;;;;;29.20;26.30;101020.97;6241484;23;19996;-71
2022/03/28 10:32:16;;;;;;;14.55;7.45;;;;;;;28.75;26.70;101023.47;6243176;23;20000;-72
2022/03/28 10:35:05;;;;;;;13.43;7.85;;;;;;;28.30;27.04;101019.44;6241887;23;20000;-72
2022/03/28 10:38:16;;;;;;;14.63;5.68;;;;;;;28.37;27.54;101017.59;6213567;23;20367;-70
2022/03/28 10:41:08;;;;;;;13.80;7.93;;;;;;;28.96;27.17;101028.66;6211756;23;20453;-71
2022/03/28 10:43:35;;;;;;;13.43;6.18;;;;;;;29.26;26.25;101019.47;6227523;23;20011;-71
2022/03/28 10:46:03;;;;;;;8.48;5.53;;;;;;;29.63;26.47;101030.06;6214587;23;20008;-68
2022/03/28 10:49:28;;;;;;;10.35;5.25;;;;;;;30.32;25.50;101040.16;6220315;23;20474;-70
2022/03/28 10:52:20;;;;;;;6.45;4.28;;;;;;;31.22;24.52;101018.38;6234829;23;20435;-73
2022/03/28 10:55:07;;;;;;;11.60;6.60;;;;;;;31.38;23.75;101009.59;6243983;23;20082;-73
2022/03/28 10:57:42;;;;;;;9.73;5.57;;;;;;;31.96;23.43;101032.47;6245188;23;20054;-74
2022/03/28 11:00:13;;;;;;;8.20;5.53;;;;;;;33.45;22.33;101020.81;6216970;23;20004;-75
2022/03/28 11:03:44;;;;;;;6.05;3.58;;;;;;;35.37;20.68;101006.13;6222072;23;19997;-73
2022/03/28 11:06:09;;;;;;;4.97;3.15;;;;;;;37.10;19.59;101015.78;6237813;23;20101;-73
2022/03/28 11:08:46;;;;;;;;;;;;;;;;;;;;;
2022/03/28 11:11:22;;;;;;;9.75;4.32;;;;;;;37.35;18.72;101001.06;6245018;23;20079;-73
2022/03/28 11:13:59;;;;;;;10.98;6.72;;;;;;;37.68;17.63;101018.31;6227250;23;20008;-72
2022/03/28 11:16:49;;;;;;;17.05;8.07;;;;;;;37.87;16.74;101011.00;6230272;23;20016;-72
2022/03/28 11:20:08;;;;;;;7.68;5.72;;;;;;;38.13;16.76;101016.94;6210517;23;20008;-74
2022/03/28 11:22:40;;;;;;;6.55;3.00;;;;;;;38.83;16.66;101005.47;6164056;23;20008;-72
2022/03/28 11:25:31;;;;;;;4.82;3.45;;;;;;;39.37;16.33;100998.28;6239302;23;20055;-72
2022/03/28 11:31:05;;;;;;;;;;;;;;;38.15;15.90;100996.50;6124600;23;20014;-72
2022/03/28 11:33:38;;;;;;;5.03;3.53;;;;;;;37.55;16.85;100988.84;6203198;23;19904;-69
2022/03/28 11:36:11;;;;;;;5.53;4.15;;;;;;;35.89;17.54;100983.13;6218457;23;20430;-70
2022/03/28 11:39:14;;;;;;;8.45;5.40;;;;;;;34.19;18.79;100975.50;6195681;23;20008;-71
2022/03/28 11:45:22;;;;;;;5.97;3.03;;;;;;;36.67;18.13;100954.66;6124415;23;20021;-72
2022/03/28 11:47:54;;;;;;;6.50;4.53;;;;;;;36.68;17.77;100978.25;6090925;23;20014;-73
2022/03/28 11:50:20;;;;;;;11.40;5.90;;;;;;;36.16;17.65;100962.44;6217306;23;20036;-72
2022/03/28 11:53:08;;;;;;;11.23;6.40;;;;;;;36.38;17.44;100953.56;6219876;23;20241;-73
2022/03/28 11:59:09;;;;;;;11.77;6.85;;;;;;;37.18;16.72;100953.75;6204261;23;20004;-72
2022/03/28 12:01:43;;;;;;;11.10;6.60;;;;;;;36.54;17.27;100921.53;6217152;23;20000;-72
2022/03/28 12:04:11;;;;;;;11.85;7.65;;;;;;;36.25;17.53;100922.81;6194089;22;20008;-72
2022/03/28 12:09:35;;;;;;;10.37;6.70;;;;;;;35.56;18.37;100928.72;6227121;23;20008;-72
2022/03/28 12:12:32;;;;;;;;;;;;;;;;;;;;;
2022/03/28 12:15:00;;;;;;;11.63;6.80;;;;;;;34.57;19.34;100921.69;6243334;23;20079;-71
2022/03/28 12:17:33;;;;;;;10.65;5.90;;;;;;;34.47;19.43;100899.09;6217815;23;20020;-72
2022/03/28 12:20:27;;;;;;;11.18;6.07;;;;;;;34.17;19.43;100909.84;6193037;23;20014;-71
2022/03/28 12:23:05;;;;;;;;;;;;;;;;;;;;;
2022/03/28 12:25:56;;;;;;;11.25;5.40;;;;;;;30.94;22.16;100872.94;6247705;23;20466;-75
2022/03/28 12:28:33;;;;;;;16.90;9.07;;;;;;;29.94;23.50;100907.63;6212172;23;20007;-71
2022/03/28 12:31:02;;;;;;;19.55;10.63;;;;;;;28.75;24.66;100894.03;6206084;23;20015;-72
2022/03/28 12:33:35;;;;;;;16.33;9.15;;;;;;;27.61;26.04;100897.31;6217344;23;20512;-74
2022/03/28 12:36:00;;;;;;;38.10;17.02;;;;;;;26.57;27.40;100880.97;6217320;23;20001;-73
2022/03/28 12:38:29;;;;;;;36.92;14.15;;;;;;;25.94;28.17;100877.78;6213849;23;20027;-71
2022/03/28 12:41:04;;;;;;;23.17;11.85;;;;;;;24.84;29.99;100837.91;6243008;23;20007;-76
2022/03/28 12:43:31;;;;;;;29.60;11.35;;;;;;;24.18;31.55;100859.38;6239657;23;20011;-75
2022/03/28 12:46:01;;;;;;;18.65;9.25;;;;;;;23.63;32.02;100872.63;6216570;23;20015;-74
2022/03/28 12:49:05;;;;;;;25.90;11.75;;;;;;;23.22;33.19;100868.75;6242091;23;20083;-75
2022/03/28 12:55:04;;;;;;;12.93;8.05;;;;;;;23.97;32.09;100861.44;6219626;23;20035;-73
2022/03/28 12:58:03;;;;;;;7.43;5.47;;;;;;;23.93;31.62;100821.41;6245590;23;20322;-73
2022/03/28 13:00:48;;;;;;;;;;;;;;;;;;;;;
2022/03/28 13:03:46;;;;;;;9.73;5.93;;;;;;;24.50;31.90;100836.41;6245433;23;20083;-72